Terminal Aerodrome Forecast
Issued by NWS Hastings, NE

Home | Current Version | Previous Version | Text Only | Print | Product List | Glossary On
Versions: 1 2 3 4 5 6 7 8 9 10 11 12 13 14 15 16 17 18 19 20 21 22 23 24
000
FTUS45 KGID 241602 AAD
TAFEAR
TAF AMD
KEAR 241602Z 2416/2512 35020G28KT 1SM -SN BLSN OVC015
      TEMPO 2416/2418 1/2SM SN
     FM241800 35016G29KT 6SM -SN OVC020
     FM242000 35018G26KT P6SM OVC030
     FM250200 33009KT P6SM BKN150
      AMD LTD TO CLD VIS AND WIND=

USA.gov is the U.S. government's official web portal to all federal, state and local government web resources and services.